createdAt,value
2022-07-29T00:04:16.835Z,55.66
2022-07-29T00:19:16.598Z,55.54
2022-07-29T00:34:16.631Z,55.55
2022-07-29T00:49:16.618Z,56.17
2022-07-29T01:04:17.135Z,56.99
2022-07-29T01:19:16.660Z,58.01
2022-07-29T01:34:16.996Z,58.76
2022-07-29T01:49:16.825Z,59.58
2022-07-29T02:04:28.893Z,60.65
2022-07-29T02:19:16.894Z,61.81
2022-07-29T02:34:17.168Z,63.03
2022-07-29T02:49:17.052Z,63.33
2022-07-29T03:04:17.568Z,65.77
2022-07-29T03:19:17.018Z,81.48
2022-07-29T03:34:17.395Z,91.82
2022-07-29T03:49:16.926Z,94.56
2022-07-29T04:04:17.543Z,99.05
2022-07-29T04:19:17.168Z,100.00
2022-07-29T04:34:17.697Z,100.00
2022-07-29T04:49:17.115Z,100.00
2022-07-29T05:04:17.385Z,100.00
2022-07-29T05:19:17.268Z,100.00
2022-07-29T05:34:17.284Z,100.00
2022-07-29T05:49:27.180Z,100.00
2022-07-29T06:04:17.630Z,100.00
2022-07-29T06:19:17.394Z,100.00
2022-07-29T06:34:17.750Z,100.00
2022-07-29T06:49:17.511Z,100.00
2022-07-29T07:04:17.943Z,100.00
2022-07-29T07:19:17.598Z,100.00
2022-07-29T07:34:18.042Z,100.00
2022-07-29T07:49:17.712Z,100.00
2022-07-29T08:04:20.900Z,100.00
2022-07-29T08:19:17.505Z,100.00
2022-07-29T08:34:17.520Z,100.00
2022-07-29T08:49:17.705Z,100.00
2022-07-29T09:04:17.614Z,100.00
2022-07-29T09:19:17.831Z,100.00
2022-07-29T09:34:17.801Z,100.00
2022-07-29T09:49:17.709Z,100.00
2022-07-29T10:04:17.708Z,100.00
2022-07-29T10:19:17.906Z,100.00
2022-07-29T10:34:17.901Z,100.00
2022-07-29T10:49:18.159Z,100.00
2022-07-29T11:04:17.927Z,96.04
2022-07-29T11:34:18.239Z,63.85
2022-07-29T11:49:17.923Z,61.94
2022-07-29T12:04:18.053Z,62.62
2022-07-29T12:19:18.308Z,63.04
2022-07-29T12:34:18.052Z,63.21
2022-07-29T12:49:18.258Z,71.89
2022-07-29T13:04:18.346Z,83.63
2022-07-29T13:19:18.142Z,70.07
2022-07-29T13:34:18.439Z,71.29
2022-07-29T13:49:18.483Z,64.75
2022-07-29T14:04:18.529Z,60.68
2022-07-29T14:19:18.627Z,58.36
2022-07-29T14:34:18.381Z,58.36
2022-07-29T14:49:18.639Z,55.15
2022-07-29T15:04:18.586Z,52.90
2022-07-29T15:19:18.716Z,53.25
2022-07-29T15:34:18.551Z,48.10
2022-07-29T15:49:18.803Z,49.95
2022-07-29T16:04:18.716Z,46.24
2022-07-29T16:19:18.613Z,45.16
2022-07-29T16:34:18.935Z,48.97
2022-07-29T16:49:19.458Z,51.72
2022-07-29T17:04:18.886Z,51.79
2022-07-29T17:19:18.889Z,51.40
2022-07-29T17:34:19.142Z,51.98
2022-07-29T17:49:19.650Z,50.06
2022-07-29T18:04:19.281Z,49.58
2022-07-29T18:19:19.214Z,49.74
2022-07-29T18:34:19.689Z,49.54
2022-07-29T18:49:19.790Z,53.95
2022-07-29T19:04:19.555Z,56.88
2022-07-29T19:19:19.602Z,61.86
2022-07-29T19:34:19.715Z,68.30
2022-07-29T19:49:19.503Z,76.08
2022-07-29T20:04:19.903Z,86.23
2022-07-29T20:19:19.640Z,91.87
2022-07-29T20:34:19.653Z,98.50
2022-07-29T20:49:19.845Z,100.00
2022-07-29T21:04:19.745Z,100.00
2022-07-29T21:19:19.845Z,100.00
2022-07-29T21:34:20.023Z,100.00
2022-07-29T21:49:20.033Z,100.00
2022-07-29T22:04:20.037Z,100.00
2022-07-29T22:19:23.143Z,100.00
2022-07-29T22:34:23.592Z,100.00
2022-07-29T22:49:23.987Z,100.00
2022-07-29T23:04:21.025Z,100.00
2022-07-29T23:19:21.296Z,100.00
2022-07-29T23:34:21.300Z,100.00
2022-07-29T23:49:24.427Z,100.00
